Fisktrans — LIAB — position and weather

sailwx.info

Track history (hours):
 
Tides and Currents Weather Stations Pressure Air Temp Water Temp Dewpoint Dewpoint Depression Visibility Wind Speed Wind Dir Waves Ship Positions

Fisktrans

Last reported at 2014-Oct-31 17:32 UTC. Time now 2014-Oct-31 19:21 UTC.
Position N 69°36' E 018°53'.

Length 58 m.

Type: Cargo ship. MMSI: 258034000.

Date/timePositionNaut miles runAvg speedWind from/ knotsBaromVisibWave heightAir tempDewpointWater temp
2014-Oct-31 17:32N 69°36' E 018°53'2 2.1
2014-Oct-31 16:33N 69°38' E 018°57'0 0.0
2014-Oct-31 15:33N 69°38' E 018°57'0 0.0
2014-Oct-31 14:32N 69°38' E 018°57'0 0.0
2014-Oct-31 13:33N 69°38' E 018°57'0 0.0
2014-Oct-31 12:32N 69°38' E 018°57'0 0.0
2014-Oct-31 11:33N 69°38' E 018°57'0 0.0
2014-Oct-31 10:33N 69°38' E 018°57'0 0.0
2014-Oct-31 09:33N 69°38' E 018°57'0 0.0
2014-Oct-31 08:33N 69°38' E 018°57'0 0.0
2014-Oct-31 07:33N 69°38' E 018°57'0 0.0
2014-Oct-31 06:33N 69°38' E 018°57'0 0.0
2014-Oct-31 05:33N 69°38' E 018°57'0 0.0
2014-Oct-31 04:33N 69°38' E 018°57'0 0.0
2014-Oct-31 03:33N 69°38' E 018°57'0 0.0
2014-Oct-31 02:33N 69°38' E 018°57'0 0.0
2014-Oct-31 01:33N 69°38' E 018°57'0 0.0
2014-Oct-31 00:33N 69°38' E 018°57'0 0.0
2014-Oct-30 23:33N 69°38' E 018°57'0 0.0
2014-Oct-30 22:33N 69°38' E 018°57'0 0.0
2014-Oct-30 21:33N 69°38' E 018°57'0 0.0
2014-Oct-30 20:33N 69°38' E 018°57'0 0.0
2014-Oct-30 19:33N 69°38' E 018°57'0 0.0
2014-Oct-30 18:33N 69°38' E 018°57'0 0.0
2014-Oct-30 17:33N 69°38' E 018°57'0 0.0
2014-Oct-30 16:33N 69°38' E 018°57'0 0.0
2014-Oct-30 15:33N 69°38' E 018°57'0 0.0
2014-Oct-30 14:33N 69°38' E 018°57'0 0.0
2014-Oct-30 13:33N 69°38' E 018°57'0 0.0
2014-Oct-30 12:33N 69°38' E 018°57'0 0.0
2014-Oct-30 11:33N 69°38' E 018°57'0 0.0
2014-Oct-30 10:33N 69°38' E 018°57'0 0.0
2014-Oct-30 09:33N 69°38' E 018°57'0 0.0
2014-Oct-30 08:33N 69°38' E 018°57'151 8.8
2014-Oct-29 15:31N 67°42' E 014°31'10 9.9
2014-Oct-29 14:32N 67°33' E 014°30'9 9.7
2014-Oct-29 13:33N 67°23' E 014°26'6 6.1
2014-Oct-29 12:33N 67°17' E 014°23'0 0.0
2014-Oct-29 11:33N 67°17' E 014°23'0 0.0
2014-Oct-29 10:33N 67°17' E 014°23'0 0.0
2014-Oct-29 09:33N 67°17' E 014°23'0 0.0
2014-Oct-29 08:33N 67°17' E 014°23'0 0.0
2014-Oct-29 07:33N 67°17' E 014°23'0 0.0
2014-Oct-29 06:33N 67°17' E 014°23'0 0.0
2014-Oct-29 05:33N 67°17' E 014°23'5 5.1
2014-Oct-29 04:33N 67°22' E 014°25'20 9.1
2014-Oct-29 02:23N 67°42' E 014°31'152 3.7
2014-Oct-27 09:12N 69°39' E 018°58'0 0.0
2014-Oct-27 08:33N 69°39' E 018°58'163 7.4
2014-Oct-26 10:33N 67°30' E 014°29'10 9.9
2014-Oct-26 09:33N 67°20' E 014°23'3 2.8
2014-Oct-26 08:33N 67°17' E 014°23'0 0.0
2014-Oct-26 07:33N 67°17' E 014°23'0 0.0
2014-Oct-26 06:33N 67°17' E 014°23'0 0.0
2014-Oct-26 05:33N 67°17' E 014°23'0 0.0
2014-Oct-26 04:33N 67°17' E 014°23'0 0.0
2014-Oct-26 03:33N 67°17' E 014°23'0 0.0
2014-Oct-26 02:33N 67°17' E 014°23'0 0.0
2014-Oct-26 01:33N 67°17' E 014°23'0 0.0
2014-Oct-26 00:33N 67°17' E 014°23'0 0.0
2014-Oct-25 23:33N 67°17' E 014°23'0 0.0
2014-Oct-25 22:33N 67°17' E 014°23'0 0.0
2014-Oct-25 21:33N 67°17' E 014°23'0 0.0
2014-Oct-25 20:33N 67°17' E 014°23'0 0.0
2014-Oct-25 19:33N 67°17' E 014°23'0 0.0
2014-Oct-25 18:33N 67°17' E 014°23'0 0.0
2014-Oct-25 17:33N 67°17' E 014°23'0 0.0
2014-Oct-25 16:33N 67°17' E 014°23'0 0.0
2014-Oct-25 15:33N 67°17' E 014°23'0 0.0
2014-Oct-25 14:33N 67°17' E 014°23'0 0.0
2014-Oct-25 13:33N 67°17' E 014°23'0 0.0
2014-Oct-25 12:33N 67°17' E 014°23'0 0.0
2014-Oct-25 11:33N 67°17' E 014°23'0 0.0
2014-Oct-25 10:33N 67°17' E 014°23'0 0.0
2014-Oct-25 09:33N 67°17' E 014°23'0 0.0
2014-Oct-25 08:33N 67°17' E 014°23'0 0.0
2014-Oct-25 07:33N 67°17' E 014°23'0 0.0
2014-Oct-25 06:33N 67°17' E 014°23'0 0.0
2014-Oct-25 05:33N 67°17' E 014°23'0 0.0
2014-Oct-25 04:33N 67°17' E 014°23'0 0.0
2014-Oct-25 03:33N 67°17' E 014°23'0 0.0
2014-Oct-25 02:33N 67°17' E 014°23'0 0.0
2014-Oct-25 01:33N 67°17' E 014°23'0 0.0
2014-Oct-25 00:33N 67°17' E 014°23'0 0.0
2014-Oct-24 23:33N 67°17' E 014°23'0 0.0
2014-Oct-24 22:33N 67°17' E 014°23'0 0.0
2014-Oct-24 21:33N 67°17' E 014°23'0 0.0
2014-Oct-24 20:33N 67°17' E 014°23'0 0.0
2014-Oct-24 19:33N 67°17' E 014°23'0 0.0
2014-Oct-24 18:33N 67°17' E 014°23'0 0.0
2014-Oct-24 17:33N 67°17' E 014°23'0 0.0
2014-Oct-24 16:33N 67°17' E 014°23'0 0.0
2014-Oct-24 15:33N 67°17' E 014°23'0 0.0
2014-Oct-24 14:33N 67°17' E 014°23'0 0.0
2014-Oct-24 13:33N 67°17' E 014°23'0 0.0
2014-Oct-24 12:33N 67°17' E 014°23'0 0.0
2014-Oct-24 11:33N 67°17' E 014°23'0 0.0
2014-Oct-24 10:33N 67°17' E 014°23'0 0.0
2014-Oct-24 09:33N 67°17' E 014°23'0 0.0
2014-Oct-24 08:33N 67°17' E 014°23'0 0.0
2014-Oct-24 07:33N 67°17' E 014°23'0 0.0
2014-Oct-24 06:33N 67°17' E 014°23'0 0.0
2014-Oct-24 05:33N 67°17' E 014°23'0 0.0
2014-Oct-24 04:33N 67°17' E 014°23'0 0.0
2014-Oct-24 03:33N 67°17' E 014°23'0 0.0
2014-Oct-24 02:33N 67°17' E 014°23'0 0.0
2014-Oct-24 01:33N 67°17' E 014°23'0 0.0
2014-Oct-24 00:33N 67°17' E 014°23'0 0.0
2014-Oct-23 23:33N 67°17' E 014°23'0 0.0
2014-Oct-23 22:33N 67°17' E 014°23'0 0.0
2014-Oct-23 21:33N 67°17' E 014°23'0 0.0
2014-Oct-23 20:33N 67°17' E 014°23'0 0.0
2014-Oct-23 19:33N 67°17' E 014°23'0 0.0
2014-Oct-23 18:33N 67°17' E 014°23'0 0.0
2014-Oct-23 17:33N 67°17' E 014°23'0 0.0
2014-Oct-23 16:33N 67°17' E 014°23'0 0.0
2014-Oct-23 15:33N 67°17' E 014°23'0 0.0
2014-Oct-23 14:33N 67°17' E 014°23'0 0.0
2014-Oct-23 13:33N 67°17' E 014°23'0 0.0
2014-Oct-23 12:33N 67°17' E 014°23'0 0.0
2014-Oct-23 11:33N 67°17' E 014°23'0 0.0
2014-Oct-23 10:33N 67°17' E 014°23'0 0.0
2014-Oct-23 09:33N 67°17' E 014°23'0 0.0
2014-Oct-23 08:33N 67°17' E 014°23'0 0.0
2014-Oct-23 07:33N 67°17' E 014°23'0 0.0
2014-Oct-23 06:33N 67°17' E 014°23'0 0.0
2014-Oct-23 05:33N 67°17' E 014°23'0 0.0
2014-Oct-23 04:33N 67°17' E 014°23'0 0.0
2014-Oct-23 03:33N 67°17' E 014°23'0 0.0
2014-Oct-23 02:33N 67°17' E 014°23'0 0.0
2014-Oct-23 01:33N 67°17' E 014°23'0 0.0
2014-Oct-23 00:33N 67°17' E 014°23'0 0.0
2014-Oct-22 23:34N 67°17' E 014°23'0 0.0
2014-Oct-22 22:33N 67°17' E 014°23'0 0.0
2014-Oct-22 21:33N 67°17' E 014°23'0 0.0
2014-Oct-22 20:33N 67°17' E 014°23'0 0.0
2014-Oct-22 19:33N 67°17' E 014°23'0 0.0
2014-Oct-22 18:33N 67°17' E 014°23'0 0.0
2014-Oct-22 17:33N 67°17' E 014°23'0 0.0
2014-Oct-22 16:33N 67°17' E 014°23'0 0.0
2014-Oct-22 15:33N 67°17' E 014°23'0 0.0
2014-Oct-22 14:33N 67°17' E 014°23'0 0.0
2014-Oct-22 13:33N 67°17' E 014°23'0 0.0
2014-Oct-22 12:33N 67°17' E 014°23'0 0.0
2014-Oct-22 11:33N 67°17' E 014°23'0 0.0
2014-Oct-22 10:33N 67°17' E 014°23'0 0.0
2014-Oct-22 09:33N 67°17' E 014°23'0 0.5
2014-Oct-22 08:33N 67°18' E 014°23'0 0.0
2014-Oct-22 07:33N 67°18' E 014°23'0 0.0
2014-Oct-22 06:33N 67°18' E 014°23'0 0.0
2014-Oct-22 05:33N 67°18' E 014°23'0 0.0
2014-Oct-22 04:33N 67°18' E 014°23'0 0.0
2014-Oct-22 03:33N 67°18' E 014°23'0 0.0
2014-Oct-22 02:33N 67°18' E 014°23'0 0.0
2014-Oct-22 01:33N 67°18' E 014°23'0 0.0
2014-Oct-22 00:33N 67°18' E 014°23'0 0.0
2014-Oct-21 23:33N 67°18' E 014°23'0 0.0
2014-Oct-21 22:33N 67°18' E 014°23'0 0.0
2014-Oct-21 21:33N 67°18' E 014°23'0 0.0
2014-Oct-21 20:33N 67°18' E 014°23'0 0.0
2014-Oct-21 19:33N 67°18' E 014°23'0 0.0
2014-Oct-21 18:33N 67°18' E 014°23'0 0.0
2014-Oct-21 17:33N 67°18' E 014°23'  
Track history (hours):
 
Tides and Currents Weather Stations Pressure Air Temp Water Temp Dewpoint Dewpoint Depression Visibility Wind Speed Wind Dir Waves Ship Positions

Fisktrans

Last reported at 2014-Oct-31 17:32 UTC. Time now 2014-Oct-31 19:21 UTC.
Position N 69°36' E 018°53'.

Length 58 m.

Type: Cargo ship. MMSI: 258034000.

Date/timePositionNaut miles runAvg speedWind from/ knotsBaromVisibWave heightAir tempDewpointWater temp
2014-Oct-31 17:32N 69°36' E 018°53'2 2.1
2014-Oct-31 16:33N 69°38' E 018°57'0 0.0
2014-Oct-31 15:33N 69°38' E 018°57'0 0.0
2014-Oct-31 14:32N 69°38' E 018°57'0 0.0
2014-Oct-31 13:33N 69°38' E 018°57'0 0.0
2014-Oct-31 12:32N 69°38' E 018°57'0 0.0
2014-Oct-31 11:33N 69°38' E 018°57'0 0.0
2014-Oct-31 10:33N 69°38' E 018°57'0 0.0
2014-Oct-31 09:33N 69°38' E 018°57'0 0.0
2014-Oct-31 08:33N 69°38' E 018°57'0 0.0
2014-Oct-31 07:33N 69°38' E 018°57'0 0.0
2014-Oct-31 06:33N 69°38' E 018°57'0 0.0
2014-Oct-31 05:33N 69°38' E 018°57'0 0.0
2014-Oct-31 04:33N 69°38' E 018°57'0 0.0
2014-Oct-31 03:33N 69°38' E 018°57'0 0.0
2014-Oct-31 02:33N 69°38' E 018°57'0 0.0
2014-Oct-31 01:33N 69°38' E 018°57'0 0.0
2014-Oct-31 00:33N 69°38' E 018°57'0 0.0
2014-Oct-30 23:33N 69°38' E 018°57'0 0.0
2014-Oct-30 22:33N 69°38' E 018°57'0 0.0
2014-Oct-30 21:33N 69°38' E 018°57'0 0.0
2014-Oct-30 20:33N 69°38' E 018°57'0 0.0
2014-Oct-30 19:33N 69°38' E 018°57'0 0.0
2014-Oct-30 18:33N 69°38' E 018°57'0 0.0
2014-Oct-30 17:33N 69°38' E 018°57'0 0.0
2014-Oct-30 16:33N 69°38' E 018°57'0 0.0
2014-Oct-30 15:33N 69°38' E 018°57'0 0.0
2014-Oct-30 14:33N 69°38' E 018°57'0 0.0
2014-Oct-30 13:33N 69°38' E 018°57'0 0.0
2014-Oct-30 12:33N 69°38' E 018°57'0 0.0
2014-Oct-30 11:33N 69°38' E 018°57'0 0.0
2014-Oct-30 10:33N 69°38' E 018°57'0 0.0
2014-Oct-30 09:33N 69°38' E 018°57'0 0.0
2014-Oct-30 08:33N 69°38' E 018°57'151 8.8
2014-Oct-29 15:31N 67°42' E 014°31'10 9.9
2014-Oct-29 14:32N 67°33' E 014°30'9 9.7
2014-Oct-29 13:33N 67°23' E 014°26'6 6.1
2014-Oct-29 12:33N 67°17' E 014°23'0 0.0
2014-Oct-29 11:33N 67°17' E 014°23'0 0.0
2014-Oct-29 10:33N 67°17' E 014°23'0 0.0
2014-Oct-29 09:33N 67°17' E 014°23'0 0.0
2014-Oct-29 08:33N 67°17' E 014°23'0 0.0
2014-Oct-29 07:33N 67°17' E 014°23'0 0.0
2014-Oct-29 06:33N 67°17' E 014°23'0 0.0
2014-Oct-29 05:33N 67°17' E 014°23'5 5.1
2014-Oct-29 04:33N 67°22' E 014°25'20 9.1
2014-Oct-29 02:23N 67°42' E 014°31'152 3.7
2014-Oct-27 09:12N 69°39' E 018°58'0 0.0
2014-Oct-27 08:33N 69°39' E 018°58'163 7.4
2014-Oct-26 10:33N 67°30' E 014°29'10 9.9
2014-Oct-26 09:33N 67°20' E 014°23'3 2.8
2014-Oct-26 08:33N 67°17' E 014°23'0 0.0
2014-Oct-26 07:33N 67°17' E 014°23'0 0.0
2014-Oct-26 06:33N 67°17' E 014°23'0 0.0
2014-Oct-26 05:33N 67°17' E 014°23'0 0.0
2014-Oct-26 04:33N 67°17' E 014°23'0 0.0
2014-Oct-26 03:33N 67°17' E 014°23'0 0.0
2014-Oct-26 02:33N 67°17' E 014°23'0 0.0
2014-Oct-26 01:33N 67°17' E 014°23'0 0.0
2014-Oct-26 00:33N 67°17' E 014°23'0 0.0
2014-Oct-25 23:33N 67°17' E 014°23'0 0.0
2014-Oct-25 22:33N 67°17' E 014°23'0 0.0
2014-Oct-25 21:33N 67°17' E 014°23'0 0.0
2014-Oct-25 20:33N 67°17' E 014°23'0 0.0
2014-Oct-25 19:33N 67°17' E 014°23'0 0.0
2014-Oct-25 18:33N 67°17' E 014°23'0 0.0
2014-Oct-25 17:33N 67°17' E 014°23'0 0.0
2014-Oct-25 16:33N 67°17' E 014°23'0 0.0
2014-Oct-25 15:33N 67°17' E 014°23'0 0.0
2014-Oct-25 14:33N 67°17' E 014°23'0 0.0
2014-Oct-25 13:33N 67°17' E 014°23'0 0.0
2014-Oct-25 12:33N 67°17' E 014°23'0 0.0
2014-Oct-25 11:33N 67°17' E 014°23'0 0.0
2014-Oct-25 10:33N 67°17' E 014°23'0 0.0
2014-Oct-25 09:33N 67°17' E 014°23'0 0.0
2014-Oct-25 08:33N 67°17' E 014°23'0 0.0
2014-Oct-25 07:33N 67°17' E 014°23'0 0.0
2014-Oct-25 06:33N 67°17' E 014°23'0 0.0
2014-Oct-25 05:33N 67°17' E 014°23'0 0.0
2014-Oct-25 04:33N 67°17' E 014°23'0 0.0
2014-Oct-25 03:33N 67°17' E 014°23'0 0.0
2014-Oct-25 02:33N 67°17' E 014°23'0 0.0
2014-Oct-25 01:33N 67°17' E 014°23'0 0.0
2014-Oct-25 00:33N 67°17' E 014°23'0 0.0
2014-Oct-24 23:33N 67°17' E 014°23'0 0.0
2014-Oct-24 22:33N 67°17' E 014°23'0 0.0
2014-Oct-24 21:33N 67°17' E 014°23'0 0.0
2014-Oct-24 20:33N 67°17' E 014°23'0 0.0
2014-Oct-24 19:33N 67°17' E 014°23'0 0.0
2014-Oct-24 18:33N 67°17' E 014°23'0 0.0
2014-Oct-24 17:33N 67°17' E 014°23'0 0.0
2014-Oct-24 16:33N 67°17' E 014°23'0 0.0
2014-Oct-24 15:33N 67°17' E 014°23'0 0.0
2014-Oct-24 14:33N 67°17' E 014°23'0 0.0
2014-Oct-24 13:33N 67°17' E 014°23'0 0.0
2014-Oct-24 12:33N 67°17' E 014°23'0 0.0
2014-Oct-24 11:33N 67°17' E 014°23'0 0.0
2014-Oct-24 10:33N 67°17' E 014°23'0 0.0
2014-Oct-24 09:33N 67°17' E 014°23'0 0.0
2014-Oct-24 08:33N 67°17' E 014°23'0 0.0
2014-Oct-24 07:33N 67°17' E 014°23'0 0.0
2014-Oct-24 06:33N 67°17' E 014°23'0 0.0
2014-Oct-24 05:33N 67°17' E 014°23'0 0.0
2014-Oct-24 04:33N 67°17' E 014°23'0 0.0
2014-Oct-24 03:33N 67°17' E 014°23'0 0.0
2014-Oct-24 02:33N 67°17' E 014°23'0 0.0
2014-Oct-24 01:33N 67°17' E 014°23'0 0.0
2014-Oct-24 00:33N 67°17' E 014°23'0 0.0
2014-Oct-23 23:33N 67°17' E 014°23'0 0.0
2014-Oct-23 22:33N 67°17' E 014°23'0 0.0
2014-Oct-23 21:33N 67°17' E 014°23'0 0.0
2014-Oct-23 20:33N 67°17' E 014°23'0 0.0
2014-Oct-23 19:33N 67°17' E 014°23'0 0.0
2014-Oct-23 18:33N 67°17' E 014°23'0 0.0
2014-Oct-23 17:33N 67°17' E 014°23'0 0.0
2014-Oct-23 16:33N 67°17' E 014°23'0 0.0
2014-Oct-23 15:33N 67°17' E 014°23'0 0.0
2014-Oct-23 14:33N 67°17' E 014°23'0 0.0
2014-Oct-23 13:33N 67°17' E 014°23'0 0.0
2014-Oct-23 12:33N 67°17' E 014°23'0 0.0
2014-Oct-23 11:33N 67°17' E 014°23'0 0.0
2014-Oct-23 10:33N 67°17' E 014°23'0 0.0
2014-Oct-23 09:33N 67°17' E 014°23'0 0.0
2014-Oct-23 08:33N 67°17' E 014°23'0 0.0
2014-Oct-23 07:33N 67°17' E 014°23'0 0.0
2014-Oct-23 06:33N 67°17' E 014°23'0 0.0
2014-Oct-23 05:33N 67°17' E 014°23'0 0.0
2014-Oct-23 04:33N 67°17' E 014°23'0 0.0
2014-Oct-23 03:33N 67°17' E 014°23'0 0.0
2014-Oct-23 02:33N 67°17' E 014°23'0 0.0
2014-Oct-23 01:33N 67°17' E 014°23'0 0.0
2014-Oct-23 00:33N 67°17' E 014°23'0 0.0
2014-Oct-22 23:34N 67°17' E 014°23'0 0.0
2014-Oct-22 22:33N 67°17' E 014°23'0 0.0
2014-Oct-22 21:33N 67°17' E 014°23'0 0.0
2014-Oct-22 20:33N 67°17' E 014°23'0 0.0
2014-Oct-22 19:33N 67°17' E 014°23'0 0.0
2014-Oct-22 18:33N 67°17' E 014°23'0 0.0
2014-Oct-22 17:33N 67°17' E 014°23'0 0.0
2014-Oct-22 16:33N 67°17' E 014°23'0 0.0
2014-Oct-22 15:33N 67°17' E 014°23'0 0.0
2014-Oct-22 14:33N 67°17' E 014°23'0 0.0
2014-Oct-22 13:33N 67°17' E 014°23'0 0.0
2014-Oct-22 12:33N 67°17' E 014°23'0 0.0
2014-Oct-22 11:33N 67°17' E 014°23'0 0.0
2014-Oct-22 10:33N 67°17' E 014°23'0 0.0
2014-Oct-22 09:33N 67°17' E 014°23'0 0.5
2014-Oct-22 08:33N 67°18' E 014°23'0 0.0
2014-Oct-22 07:33N 67°18' E 014°23'0 0.0
2014-Oct-22 06:33N 67°18' E 014°23'0 0.0
2014-Oct-22 05:33N 67°18' E 014°23'0 0.0
2014-Oct-22 04:33N 67°18' E 014°23'0 0.0
2014-Oct-22 03:33N 67°18' E 014°23'0 0.0
2014-Oct-22 02:33N 67°18' E 014°23'0 0.0
2014-Oct-22 01:33N 67°18' E 014°23'0 0.0
2014-Oct-22 00:33N 67°18' E 014°23'0 0.0
2014-Oct-21 23:33N 67°18' E 014°23'0 0.0
2014-Oct-21 22:33N 67°18' E 014°23'0 0.0
2014-Oct-21 21:33N 67°18' E 014°23'0 0.0
2014-Oct-21 20:33N 67°18' E 014°23'0 0.0
2014-Oct-21 19:33N 67°18' E 014°23'0 0.0
2014-Oct-21 18:33N 67°18' E 014°23'0 0.0
2014-Oct-21 17:33N 67°18' E 014°23'  

Dump ship's entire track history